Time;durP1;ratioP1;P1;durP2;ratioP2;P2;SDS_P1;SDS_P2;PMS_P1;PMS_P2;Temp;Humidity;BMP_temperature;BMP_pressure;BME280_temperature;BME280_humidity;BME280_pressure;Samples;Min_cycle;Max_cycle;Signal;HPM_P1;HPM_P2
2021/04/23 00:01:32;;;;;;;4.45;2.92;;;;;;;12.14;56.84;94843.16;2986190;39;20067;-85
2021/04/23 00:03:42;;;;;;;6.75;3.10;;;;;;;12.18;56.77;94841.84;2987898;39;20098;-85
2021/04/23 00:05:44;;;;;;;5.07;2.78;;;;;;;12.23;56.35;94842.97;2995834;39;20051;-84
2021/04/23 00:07:46;;;;;;;5.47;2.63;;;;;;;12.25;56.07;94843.63;2985413;39;20087;-85
2021/04/23 00:09:47;;;;;;;6.47;3.38;;;;;;;12.28;56.06;94838.06;2986363;39;20060;-85
2021/04/23 00:11:52;;;;;;;3.88;2.58;;;;;;;12.32;56.24;94838.53;2996075;39;20039;-82
2021/04/23 00:13:53;;;;;;;4.13;2.60;;;;;;;12.33;56.14;94840.19;2986240;39;20075;-85
2021/04/23 00:15:55;;;;;;;5.10;3.10;;;;;;;12.31;56.34;94830.84;2995416;39;20047;-85
2021/04/23 00:17:56;;;;;;;4.68;3.10;;;;;;;12.29;56.40;94844.13;2992605;39;20471;-85
2021/04/23 00:19:57;;;;;;;6.47;2.83;;;;;;;12.26;56.47;94847.91;2989035;39;20097;-83
2021/04/23 00:21:59;;;;;;;4.90;2.83;;;;;;;12.26;56.29;94845.28;2988230;39;20058;-84
2021/04/23 00:24:00;;;;;;;5.97;3.25;;;;;;;12.27;56.29;94846.91;2996541;39;20051;-85
2021/04/23 00:26:04;;;;;;;4.32;2.47;;;;;;;12.31;56.42;94843.97;2996065;39;20035;-84
2021/04/23 00:28:09;;;;;;;4.32;2.70;;;;;;;12.31;56.21;94844.78;2995902;39;20111;-86
2021/04/23 00:30:10;;;;;;;4.70;2.80;;;;;;;12.32;56.13;94838.53;2986205;39;20132;-85
2021/04/23 00:34:32;;;;;;;5.90;3.08;;;;;;;12.06;57.20;94839.53;2995265;39;20032;-83
2021/04/23 00:36:33;;;;;;;4.97;2.92;;;;;;;12.00;57.61;94849.88;2988170;39;20058;-84
2021/04/23 00:38:36;;;;;;;6.40;2.80;;;;;;;12.00;57.40;94845.47;2985881;39;20043;-85
2021/04/23 00:40:41;;;;;;;4.75;3.00;;;;;;;12.02;57.78;94832.16;2987326;39;20047;-84
2021/04/23 00:42:43;;;;;;;4.78;2.90;;;;;;;12.05;57.54;94842.34;2993082;39;20423;-83
2021/04/23 00:44:44;;;;;;;6.65;2.75;;;;;;;12.05;57.54;94847.59;3003151;39;20046;-85
2021/04/23 00:46:46;;;;;;;4.30;2.50;;;;;;;12.06;57.52;94851.84;3000264;39;20043;-85
2021/04/23 00:48:48;;;;;;;4.72;2.80;;;;;;;12.06;57.65;94851.84;2995625;39;20055;-84
2021/04/23 00:51:01;;;;;;;3.88;2.60;;;;;;;12.08;57.32;94849.88;2989006;39;20035;-86
2021/04/23 00:53:02;;;;;;;6.07;2.92;;;;;;;12.08;57.54;94850.69;2985909;39;20536;-84
2021/04/23 00:55:05;;;;;;;3.97;2.80;;;;;;;12.07;57.50;94856.13;2985622;39;20399;-83
2021/04/23 00:57:06;;;;;;;5.77;2.73;;;;;;;12.07;57.30;94845.63;2977603;39;20079;-84
2021/04/23 00:59:10;;;;;;;3.38;2.40;;;;;;;12.10;57.47;94845.28;2986263;39;20050;-85
2021/04/23 01:01:16;;;;;;;3.88;3.15;;;;;;;12.07;57.87;94849.06;2998219;39;20440;-84
2021/04/23 01:03:20;;;;;;;4.88;2.75;;;;;;;11.97;58.17;94847.59;3005283;39;20046;-84
2021/04/23 01:05:31;;;;;;;4.18;3.00;;;;;;;11.96;58.54;94845.94;2989525;39;20262;-84
2021/04/23 01:07:33;;;;;;;9.50;2.95;;;;;;;11.86;59.02;94846.88;2985769;39;20173;-86
2021/04/23 01:09:34;;;;;;;4.75;3.30;;;;;;;11.86;59.13;94851.31;2989152;39;20095;-84
2021/04/23 01:11:35;;;;;;;4.85;3.20;;;;;;;11.85;59.24;94863.63;3002130;39;20314;-83
2021/04/23 01:13:37;;;;;;;6.60;3.30;;;;;;;11.88;59.36;94859.88;2986956;39;20035;-84
2021/04/23 01:15:38;;;;;;;3.55;2.63;;;;;;;11.85;59.46;94863.63;2986734;39;20290;-86
2021/04/23 01:17:40;;;;;;;6.03;3.35;;;;;;;11.84;59.51;94867.22;2995436;39;20086;-84
2021/04/23 01:19:41;;;;;;;5.28;3.40;;;;;;;11.87;59.65;94861.66;2995638;39;20135;-84
2021/04/23 01:21:43;;;;;;;4.78;3.22;;;;;;;11.89;59.57;94864.13;2986733;39;20067;-85
2021/04/23 01:23:45;;;;;;;6.43;3.30;;;;;;;11.93;59.62;94864.66;3000013;39;20091;-83
2021/04/23 01:25:47;;;;;;;5.85;3.55;;;;;;;11.91;60.22;94871.84;2999345;39;20459;-86
2021/04/23 01:27:48;;;;;;;4.95;3.10;;;;;;;11.89;61.02;94872.00;2999913;39;20047;-82
2021/04/23 01:29:50;;;;;;;5.93;3.53;;;;;;;11.89;60.64;94874.63;2990298;39;20476;-82
2021/04/23 01:31:56;;;;;;;6.10;3.45;;;;;;;11.86;61.02;94873.13;2994304;39;20075;-84
2021/04/23 01:34:05;;;;;;;5.20;3.55;;;;;;;11.83;61.20;94867.38;3002153;39;20051;-83
2021/04/23 01:36:08;;;;;;;6.47;3.22;;;;;;;11.83;61.60;94875.25;2987370;39;20437;-70
2021/04/23 01:38:09;;;;;;;5.95;3.80;;;;;;;11.79;61.90;94874.78;2990313;39;20086;-72
2021/04/23 01:40:12;;;;;;;5.57;3.50;;;;;;;11.73;61.99;94874.59;2981812;39;20086;-71
2021/04/23 01:42:14;;;;;;;5.32;3.53;;;;;;;11.73;62.38;94874.59;2986843;39;20070;-71
2021/04/23 01:44:16;;;;;;;8.02;3.75;;;;;;;11.73;62.51;94880.66;2988650;39;20167;-70
2021/04/23 01:46:18;;;;;;;5.82;3.72;;;;;;;11.74;62.50;94876.22;2992536;39;20087;-71
2021/04/23 01:48:19;;;;;;;4.57;3.30;;;;;;;11.74;62.85;94887.53;2993940;39;20411;-72
2021/04/23 01:50:21;;;;;;;6.97;3.92;;;;;;;11.72;63.35;94879.00;2984650;39;20064;-71
2021/04/23 01:52:23;;;;;;;6.13;3.95;;;;;;;11.73;63.52;94874.59;2991096;39;20056;-71
2021/04/23 01:54:26;;;;;;;4.18;3.42;;;;;;;11.70;64.01;94880.97;2984071;39;20055;-71
2021/04/23 01:56:27;;;;;;;6.68;3.67;;;;;;;11.68;64.28;94881.16;2989028;39;20088;-72
2021/04/23 01:58:29;;;;;;;5.38;4.05;;;;;;;11.62;64.62;94881.78;2977468;39;20096;-71
2021/04/23 02:00:37;;;;;;;6.50;3.92;;;;;;;11.59;65.12;94891.78;2982284;39;20070;-72
2021/04/23 02:02:38;;;;;;;5.13;4.00;;;;;;;11.57;65.21;94893.75;2995946;39;20095;-72
2021/04/23 02:04:39;;;;;;;5.28;3.58;;;;;;;11.60;65.06;94893.44;2991706;39;20050;-71
2021/04/23 02:06:42;;;;;;;5.32;4.07;;;;;;;11.59;65.45;94881.28;2988600;39;20539;-70
2021/04/23 02:08:43;;;;;;;5.35;3.72;;;;;;;11.54;66.02;94881.78;2993514;39;20063;-71
2021/04/23 02:10:49;;;;;;;7.30;4.00;;;;;;;11.57;65.66;94885.88;2997716;39;20051;-70
2021/04/23 02:12:50;;;;;;;7.65;3.78;;;;;;;11.55;65.81;94888.69;2984182;39;20063;-71
2021/04/23 02:14:52;;;;;;;5.28;4.13;;;;;;;11.55;65.67;94898.31;2982456;39;20052;-72
2021/04/23 02:16:54;;;;;;;4.72;4.10;;;;;;;11.55;65.81;94899.19;2992199;39;20041;-71
2021/04/23 02:18:55;;;;;;;7.10;4.20;;;;;;;11.54;65.67;94894.06;2990748;39;20139;-72
2021/04/23 02:20:56;;;;;;;5.20;4.30;;;;;;;11.57;65.88;94897.22;2993358;39;20467;-73
2021/04/23 02:22:59;;;;;;;7.25;3.65;;;;;;;11.60;65.96;94901.31;2988209;39;20091;-71
2021/04/23 02:25:00;;;;;;;4.65;4.00;;;;;;;11.58;66.01;94898.03;2992783;39;20047;-71
2021/04/23 02:27:02;;;;;;;7.07;4.43;;;;;;;11.48;67.22;94885.03;2974415;39;20044;-71
2021/04/23 02:29:11;;;;;;;6.50;4.03;;;;;;;11.41;67.13;94882.22;2983391;39;20396;-71
2021/04/23 02:31:15;;;;;;;6.30;3.88;;;;;;;11.36;67.40;94895.00;2981027;39;20054;-72
2021/04/23 02:33:20;;;;;;;5.82;4.00;;;;;;;11.36;67.57;94899.44;2980622;39;20047;-72
2021/04/23 02:35:22;;;;;;;6.05;4.32;;;;;;;11.38;67.44;94903.53;2983649;39;20067;-72
2021/04/23 02:37:23;;;;;;;6.07;4.55;;;;;;;11.37;67.42;94895.81;2980822;39;20071;-72
2021/04/23 02:39:25;;;;;;;5.88;3.83;;;;;;;11.37;67.44;94894.03;2983219;39;20058;-72
2021/04/23 02:41:27;;;;;;;5.75;4.03;;;;;;;11.39;66.88;94894.69;2989591;39;20040;-71
2021/04/23 02:43:38;;;;;;;5.90;4.00;;;;;;;11.36;67.58;94895.00;2993115;39;20072;-71
2021/04/23 02:45:40;;;;;;;5.70;4.57;;;;;;;11.33;67.75;94908.44;2989549;39;20100;-71
2021/04/23 02:47:42;;;;;;;7.13;4.30;;;;;;;11.36;67.69;94915.19;2990553;39;20330;-72
2021/04/23 02:49:44;;;;;;;7.43;4.18;;;;;;;11.32;68.15;94913.84;2983809;39;20047;-71
2021/04/23 02:51:46;;;;;;;6.00;4.10;;;;;;;11.31;68.14;94913.00;2992694;39;20051;-72
2021/04/23 02:53:48;;;;;;;5.53;4.20;;;;;;;11.32;68.31;94903.34;2986049;39;20067;-72
2021/04/23 02:55:50;;;;;;;5.05;3.75;;;;;;;11.37;68.20;94904.50;2990292;39;20320;-73
2021/04/23 02:58:12;;;;;;;5.80;4.50;;;;;;;11.39;68.45;94910.41;2978818;39;20078;-72
2021/04/23 03:00:15;;;;;;;6.28;4.25;;;;;;;11.37;68.62;94907.13;2981170;39;20060;-72
2021/04/23 03:02:17;;;;;;;6.68;4.70;;;;;;;11.34;68.36;94912.72;2988929;39;20064;-84
2021/04/23 03:04:18;;;;;;;5.28;4.22;;;;;;;11.37;68.37;94914.19;2994262;39;20397;-84
2021/04/23 03:06:20;;;;;;;7.57;4.57;;;;;;;11.35;68.02;94916.97;2994003;39;20063;-84
2021/04/23 03:08:21;;;;;;;5.65;4.55;;;;;;;11.38;68.65;94921.06;2996103;39;20035;-71
2021/04/23 03:10:25;;;;;;;6.28;4.43;;;;;;;11.38;68.89;94921.06;2992367;39;20051;-72
2021/04/23 03:12:26;;;;;;;5.78;4.68;;;;;;;11.39;68.92;94927.97;2988677;39;20143;-73
2021/04/23 03:14:27;;;;;;;6.50;4.53;;;;;;;11.41;69.56;94933.88;2978996;39;20396;-72
2021/04/23 03:16:29;;;;;;;8.80;4.80;;;;;;;11.36;70.08;94930.91;2989763;39;20398;-71
2021/04/23 03:18:31;;;;;;;6.70;4.93;;;;;;;11.39;69.59;94934.03;2983578;39;20047;-72
2021/04/23 03:20:32;;;;;;;6.72;4.75;;;;;;;11.39;70.12;94933.22;2992538;39;20062;-72
2021/04/23 03:22:34;;;;;;;6.78;5.13;;;;;;;11.40;70.21;94933.06;2993041;39;20059;-71
2021/04/23 03:24:35;;;;;;;6.32;5.10;;;;;;;11.42;69.94;94931.09;2978043;39;20436;-72
2021/04/23 03:26:37;;;;;;;10.50;4.78;;;;;;;11.44;70.11;94939.63;2989755;39;20540;-84
2021/04/23 03:28:40;;;;;;;10.60;7.20;;;;;;;11.47;69.88;94938.50;2988045;39;20062;-84
2021/04/23 03:30:44;;;;;;;10.25;6.20;;;;;;;11.48;69.42;94945.38;2997066;39;20079;-86
2021/04/23 03:32:45;;;;;;;7.70;6.35;;;;;;;11.47;69.57;94934.06;3003530;39;20061;-85
2021/04/23 03:34:46;;;;;;;9.50;7.07;;;;;;;11.47;70.00;94933.25;2986231;39;20410;-84
2021/04/23 03:36:48;;;;;;;8.95;5.72;;;;;;;11.38;69.95;94940.25;3001203;39;20091;-84
2021/04/23 03:38:50;;;;;;;7.35;5.30;;;;;;;11.14;71.11;94942.75;2997396;39;20043;-84
2021/04/23 03:40:53;;;;;;;9.63;5.63;;;;;;;11.06;71.61;94933.88;2997712;39;20046;-85
2021/04/23 03:42:54;;;;;;;7.53;4.82;;;;;;;10.58;73.81;94945.72;2988686;39;20372;-84
2021/04/23 03:44:56;;;;;;;6.50;5.10;;;;;;;10.25;75.32;94947.22;2979732;39;20052;-84
2021/04/23 03:46:58;;;;;;;7.00;5.18;;;;;;;9.99;77.28;94957.63;2986636;39;20063;-85
2021/04/23 03:48:59;;;;;;;8.45;4.60;;;;;;;9.96;78.03;94963.16;2989031;39;20156;-84
2021/04/23 03:51:03;;;;;;;5.65;4.32;;;;;;;9.47;79.88;94968.69;2991133;39;20063;-85
2021/04/23 03:53:08;;;;;;;6.80;4.30;;;;;;;9.42;79.93;94976.97;2996714;39;20062;-85
2021/04/23 03:55:14;;;;;;;6.63;4.32;;;;;;;9.57;80.09;94973.84;2987088;39;20388;-85
2021/04/23 03:57:15;;;;;;;6.05;4.60;;;;;;;9.70;79.29;94966.50;2986597;39;20052;-84
2021/04/23 03:59:17;;;;;;;7.18;4.47;;;;;;;9.77;78.78;94969.34;2978620;40;20048;-86
2021/04/23 04:01:21;;;;;;;6.68;4.97;;;;;;;9.89;78.62;94965.53;2988265;39;20357;-85
2021/04/23 04:03:25;;;;;;;6.43;4.40;;;;;;;10.04;77.99;94963.22;2990291;39;20187;-85
2021/04/23 04:05:26;;;;;;;5.28;4.18;;;;;;;10.22;77.09;94965.88;2995563;39;20062;-85
2021/04/23 04:07:27;;;;;;;5.85;4.43;;;;;;;10.36;76.23;94975.00;2990408;39;20393;-84
2021/04/23 04:09:31;;;;;;;5.35;4.20;;;;;;;10.49;76.17;94993.78;2997771;39;20135;-83
2021/04/23 04:11:32;;;;;;;6.93;4.63;;;;;;;10.57;75.92;94980.75;2989317;39;20128;-86
2021/04/23 04:13:36;;;;;;;6.68;4.22;;;;;;;10.62;75.76;94972.41;2995251;39;20047;-86
2021/04/23 04:15:38;;;;;;;4.80;3.25;;;;;;;10.68;75.44;94969.19;2988619;39;20064;-84
2021/04/23 04:17:39;;;;;;;5.15;3.97;;;;;;;10.70;75.23;94967.25;2991001;39;20055;-85
2021/04/23 04:19:40;;;;;;;4.93;3.72;;;;;;;10.73;75.24;94972.16;2990950;39;20050;-85
2021/04/23 04:21:42;;;;;;;4.97;4.00;;;;;;;10.75;75.47;94975.47;2983643;39;20063;-86
2021/04/23 04:23:43;;;;;;;5.32;4.13;;;;;;;10.81;74.88;94980.09;2987981;39;20040;-85
2021/04/23 04:25:48;;;;;;;5.57;3.78;;;;;;;10.85;74.77;94983.25;2999281;39;20033;-86
2021/04/23 04:27:49;;;;;;;5.13;3.88;;;;;;;10.87;75.02;94981.28;2984993;39;20090;-72
2021/04/23 04:30:15;;;;;;;7.30;4.35;;;;;;;10.85;74.39;94985.88;2988745;39;20108;-70
2021/04/23 04:32:17;;;;;;;6.78;4.75;;;;;;;10.42;75.41;94974.41;2974581;39;20056;-69
2021/04/23 04:34:19;;;;;;;6.60;5.05;;;;;;;10.02;76.97;94986.09;2982964;39;20059;-72
2021/04/23 04:36:20;;;;;;;8.13;5.63;;;;;;;9.84;77.25;94992.16;2974714;39;20088;-73
2021/04/23 04:38:22;;;;;;;6.80;5.55;;;;;;;9.56;79.02;94990.53;2991498;39;20109;-72
2021/04/23 04:40:25;;;;;;;7.18;5.00;;;;;;;9.33;79.86;94988.28;2991626;39;20316;-72
2021/04/23 04:42:27;;;;;;;7.95;5.47;;;;;;;9.19;80.51;94997.44;2982769;39;20541;-73
2021/04/23 04:44:29;;;;;;;8.88;6.55;;;;;;;9.29;81.09;95001.78;2993027;39;20092;-72
2021/04/23 04:46:31;;;;;;;7.78;5.72;;;;;;;9.15;81.44;94998.69;2992272;39;20086;-72
2021/04/23 04:48:33;;;;;;;8.20;6.00;;;;;;;9.19;81.72;94992.19;2992814;39;20055;-72
2021/04/23 04:50:38;;;;;;;8.23;5.80;;;;;;;9.45;80.91;94994.16;2967036;39;20083;-73
2021/04/23 04:52:40;;;;;;;8.60;6.03;;;;;;;9.70;81.25;95003.13;2980217;39;20052;-72
2021/04/23 04:54:41;;;;;;;9.23;5.78;;;;;;;9.90;80.10;95003.84;2987276;39;20081;-72
2021/04/23 04:56:42;;;;;;;7.82;5.32;;;;;;;10.12;79.29;95004.38;2982772;39;20095;-72
2021/04/23 04:58:43;;;;;;;8.75;5.38;;;;;;;10.27;77.48;95007.31;2982414;39;20065;-72
2021/04/23 05:00:46;;;;;;;8.85;4.85;;;;;;;10.36;76.86;95011.66;2991821;39;20077;-73
2021/04/23 05:02:47;;;;;;;7.65;5.15;;;;;;;10.46;76.61;95015.03;2986707;39;20059;-72
2021/04/23 05:04:49;;;;;;;8.10;5.53;;;;;;;10.46;76.32;95020.28;2982046;39;20107;-72
2021/04/23 05:06:50;;;;;;;10.40;5.82;;;;;;;10.44;76.00;95009.94;2989456;39;20441;-72
2021/04/23 05:08:51;;;;;;;8.32;6.10;;;;;;;10.45;76.03;95005.53;2991863;39;21598;-71
2021/04/23 05:10:52;;;;;;;7.55;5.55;;;;;;;10.40;75.51;95013.00;2986763;39;20062;-72
2021/04/23 05:12:54;;;;;;;9.20;6.75;;;;;;;10.32;76.47;95011.13;2987283;39;20127;-72
2021/04/23 05:14:55;;;;;;;11.45;7.63;;;;;;;10.07;76.93;95012.69;2982890;39;20680;-72
2021/04/23 05:16:56;;;;;;;6.93;5.30;;;;;;;10.12;77.28;95015.66;2980292;39;20532;-71
2021/04/23 05:18:58;;;;;;;9.32;5.60;;;;;;;10.16;77.08;95022.25;2986280;39;20147;-72
2021/04/23 05:20:59;;;;;;;8.27;5.55;;;;;;;10.06;77.72;95026.72;2978070;39;20401;-72
2021/04/23 05:23:01;;;;;;;8.40;6.30;;;;;;;10.20;77.70;95028.03;2991890;39;20055;-74
2021/04/23 05:25:04;;;;;;;7.70;5.70;;;;;;;10.28;77.02;95022.84;2981787;39;20290;-74
2021/04/23 05:27:05;;;;;;;6.70;4.80;;;;;;;10.01;76.76;95019.31;2994060;39;20054;-73
2021/04/23 05:29:06;;;;;;;6.22;4.57;;;;;;;9.70;78.05;95026.69;2994027;39;20083;-73
2021/04/23 05:31:08;;;;;;;6.07;4.35;;;;;;;9.42;79.55;95034.50;2989686;39;20043;-73
2021/04/23 05:33:10;;;;;;;6.25;4.80;;;;;;;9.33;80.34;95032.72;2992063;39;20043;-72
2021/04/23 05:35:14;;;;;;;6.15;5.00;;;;;;;9.38;80.58;95034.94;2991512;39;20079;-72
2021/04/23 05:37:15;;;;;;;7.10;4.45;;;;;;;9.46;79.78;95044.66;2972560;40;20071;-72
2021/04/23 05:39:16;;;;;;;6.63;4.40;;;;;;;9.05;80.21;95041.50;2991009;39;20365;-74
2021/04/23 05:41:32;;;;;;;6.43;4.40;;;;;;;9.01;80.29;95036.56;2984434;39;20104;-73
2021/04/23 05:43:33;;;;;;;8.30;4.68;;;;;;;8.97;81.30;95039.56;2977145;39;20068;-73
2021/04/23 05:45:36;;;;;;;7.05;5.05;;;;;;;9.04;80.79;95040.66;2973311;39;20056;-72
2021/04/23 05:47:39;;;;;;;7.82;4.70;;;;;;;9.07;81.17;95050.81;2991970;39;20123;-71
2021/04/23 05:49:40;;;;;;;6.32;4.93;;;;;;;9.20;80.25;95047.91;2981161;39;20405;-72
2021/04/23 05:51:41;;;;;;;7.28;4.75;;;;;;;9.10;79.86;95054.94;2975521;39;20052;-73
2021/04/23 05:53:42;;;;;;;7.30;5.78;;;;;;;9.20;79.90;95051.34;2993179;39;20147;-72
2021/04/23 05:55:44;;;;;;;10.38;5.40;;;;;;;9.24;79.97;95059.72;2990073;39;20092;-71
2021/04/23 05:57:46;;;;;;;7.47;5.35;;;;;;;9.28;79.99;95055.88;2975299;39;20051;-71
2021/04/23 05:59:47;;;;;;;6.57;5.30;;;;;;;9.23;79.86;95052.88;2993860;39;20315;-74
2021/04/23 06:01:49;;;;;;;8.23;5.05;;;;;;;9.24;79.07;95057.13;2990814;39;20061;-71
2021/04/23 06:03:50;;;;;;;6.55;4.50;;;;;;;9.18;79.95;95063.75;2992055;39;20051;-71
2021/04/23 06:05:51;;;;;;;6.68;4.57;;;;;;;9.44;80.05;95063.09;2980986;39;20054;-75
2021/04/23 06:07:57;;;;;;;11.70;5.25;;;;;;;9.54;79.03;95057.84;2983070;39;20445;-74
2021/04/23 06:09:58;;;;;;;8.27;5.55;;;;;;;9.64;79.30;95067.31;2988718;39;20086;-72
2021/04/23 06:11:59;;;;;;;6.13;4.88;;;;;;;9.56;79.24;95067.19;2980345;39;20232;-74
2021/04/23 06:14:00;;;;;;;8.13;5.28;;;;;;;9.47;79.99;95065.44;2991791;39;20138;-72
2021/04/23 06:16:02;;;;;;;6.43;5.30;;;;;;;9.52;81.13;95057.16;2983907;39;20332;-71
2021/04/23 06:18:04;;;;;;;7.55;6.22;;;;;;;9.48;79.93;95064.47;2983361;39;20063;-73
2021/04/23 06:20:09;;;;;;;8.68;7.03;;;;;;;9.54;79.24;95073.53;2992913;39;20050;-71
2021/04/23 06:22:10;;;;;;;8.70;7.25;;;;;;;9.48;78.71;95059.22;2992371;39;20047;-73
2021/04/23 06:24:12;;;;;;;11.70;7.63;;;;;;;9.55;79.77;95068.19;2983062;39;20058;-73
2021/04/23 06:26:13;;;;;;;11.07;7.43;;;;;;;9.48;80.13;95067.09;2993066;39;20047;-72
2021/04/23 06:28:14;;;;;;;12.02;8.00;;;;;;;9.61;79.98;95069.38;2993007;39;20087;-73
2021/04/23 06:30:19;;;;;;;10.25;7.25;;;;;;;9.49;79.82;95073.97;2974078;39;20090;-72
2021/04/23 06:32:20;;;;;;;10.63;7.32;;;;;;;9.63;80.29;95070.06;2978159;39;20074;-72
2021/04/23 06:34:22;;;;;;;12.10;8.25;;;;;;;9.71;79.97;95072.78;2991708;39;20074;-78
2021/04/23 06:36:23;;;;;;;10.20;7.65;;;;;;;9.73;79.88;95068.22;2993107;39;20074;-73
2021/04/23 06:38:24;;;;;;;12.05;9.10;;;;;;;9.68;80.92;95070.47;2992922;39;20064;-73
2021/04/23 06:40:26;;;;;;;18.50;14.45;;;;;;;9.74;80.47;95066.44;2978401;39;20067;-72
2021/04/23 06:42:27;;;;;;;17.92;14.60;;;;;;;9.89;80.43;95067.59;2992929;39;20057;-73
2021/04/23 06:44:29;;;;;;;19.13;14.77;;;;;;;9.91;79.86;95064.84;2993299;39;20093;-72
2021/04/23 06:46:30;;;;;;;19.55;16.17;;;;;;;9.88;80.13;95065.97;2988296;39;20058;-72
2021/04/23 06:48:31;;;;;;;27.10;13.80;;;;;;;9.90;79.71;95069.25;2983710;39;20063;-72
2021/04/23 06:50:32;;;;;;;16.23;12.82;;;;;;;9.98;80.12;95064.13;2992684;39;20133;-72
2021/04/23 06:52:34;;;;;;;16.15;12.18;;;;;;;10.05;79.82;95072.22;2975279;39;20052;-74
2021/04/23 06:54:39;;;;;;;14.30;9.93;;;;;;;9.91;80.35;95072.69;2991594;39;20280;-73
2021/04/23 06:56:40;;;;;;;15.45;10.15;;;;;;;10.04;80.00;95075.78;2995110;39;20054;-72
2021/04/23 06:58:43;;;;;;;13.57;9.48;;;;;;;10.00;80.96;95077.88;2996634;39;20065;-72
2021/04/23 07:01:19;;;;;;;;;;;;;;;10.07;80.53;95067.66;2979032;39;20154;-74
2021/04/23 07:03:21;;;;;;;16.50;9.55;;;;;;;10.18;79.88;95072.69;2991029;39;20289;-72
2021/04/23 07:05:22;;;;;;;12.32;10.52;;;;;;;10.22;79.60;95084.50;2987825;39;20047;-74
2021/04/23 07:07:24;;;;;;;15.82;11.18;;;;;;;10.33;79.87;95080.06;2986038;39;20342;-74
2021/04/23 07:09:25;;;;;;;16.05;12.60;;;;;;;10.33;79.68;95077.44;2983006;39;20067;-71
2021/04/23 07:11:26;;;;;;;12.73;10.60;;;;;;;10.30;79.72;95083.78;2984266;39;20088;-72
2021/04/23 07:13:28;;;;;;;12.00;9.10;;;;;;;10.39;78.82;95084.69;2982866;39;20074;-73
2021/04/23 07:15:31;;;;;;;12.70;8.75;;;;;;;10.29;79.75;95083.91;2991218;39;20420;-72
2021/04/23 07:17:32;;;;;;;8.85;7.78;;;;;;;10.37;79.57;95084.84;2992836;39;20572;-72
2021/04/23 07:19:47;;;;;;;9.30;6.13;;;;;;;10.35;78.69;95081.56;2985224;39;20052;-78
2021/04/23 07:21:48;;;;;;;9.13;6.28;;;;;;;10.40;78.95;95084.53;2988058;39;20066;-88
2021/04/23 07:23:50;;;;;;;8.90;7.05;;;;;;;10.39;79.57;95080.28;2990742;39;20047;-85
2021/04/23 07:25:51;;;;;;;9.98;6.50;;;;;;;10.45;78.68;95081.47;2989738;39;20031;-87
2021/04/23 07:27:52;;;;;;;12.43;6.88;;;;;;;10.39;79.25;95092.53;2994275;39;20469;-90
2021/04/23 07:29:54;;;;;;;11.77;7.07;;;;;;;10.31;79.42;95097.72;2989979;39;20413;-85
2021/04/23 07:31:55;;;;;;;11.55;7.10;;;;;;;10.45;77.30;95089.34;3000592;39;20264;-86
2021/04/23 07:33:57;;;;;;;11.35;7.53;;;;;;;10.66;77.06;95095.09;3005101;39;20071;-88
2021/04/23 07:35:58;;;;;;;7.38;4.95;;;;;;;10.86;75.24;95100.19;2987779;39;20073;-85
2021/04/23 07:38:00;;;;;;;9.95;6.10;;;;;;;10.93;72.84;95095.19;2990481;39;20032;-85
2021/04/23 07:40:04;;;;;;;6.68;4.57;;;;;;;11.11;73.01;95095.16;2990745;39;20064;-88
2021/04/23 07:42:05;;;;;;;;;;;;;;;11.31;72.19;95101.03;2988623;39;20434;-85
2021/04/23 07:44:07;;;;;;;6.85;3.78;;;;;;;11.42;72.02;95099.00;2987243;39;19935;-86
2021/04/23 07:46:11;;;;;;;7.45;3.92;;;;;;;11.61;71.55;95105.00;2996956;39;20023;-88
2021/04/23 07:48:12;;;;;;;5.00;2.63;;;;;;;11.60;69.69;95105.97;2996965;39;20200;-87
2021/04/23 07:50:16;;;;;;;3.50;2.00;;;;;;;11.64;68.06;95105.50;2987082;39;20055;-88
2021/04/23 07:52:18;;;;;;;3.60;2.15;;;;;;;11.64;68.02;95109.94;2997100;39;20039;-87
2021/04/23 07:54:19;;;;;;;3.50;1.50;;;;;;;11.42;67.40;95099.00;2997101;39;20031;-88
2021/04/23 07:56:20;;;;;;;3.97;1.55;;;;;;;11.42;67.14;95104.25;2987443;39;20335;-88
2021/04/23 07:58:22;;;;;;;5.70;1.50;;;;;;;11.41;67.40;95110.44;2996929;39;20038;-73
2021/04/23 08:00:24;;;;;;;3.15;1.25;;;;;;;11.40;67.57;95105.34;2999428;39;20334;-72
2021/04/23 08:02:25;;;;;;;2.08;1.40;;;;;;;11.31;67.74;95098.41;2997639;39;20170;-74
2021/04/23 08:04:27;;;;;;;2.92;1.80;;;;;;;11.34;68.64;95098.94;2982678;39;20047;-72
2021/04/23 08:06:28;;;;;;;2.83;1.95;;;;;;;11.39;68.19;95099.28;2983562;39;20056;-74
2021/04/23 08:08:29;;;;;;;2.30;1.60;;;;;;;11.43;68.16;95105.88;2992491;39;20055;-73
2021/04/23 08:10:31;;;;;;;2.50;1.90;;;;;;;11.47;67.90;95095.91;2994638;39;20054;-74
2021/04/23 08:12:32;;;;;;;3.10;1.85;;;;;;;11.45;68.80;95103.09;2991961;39;20063;-75
2021/04/23 08:14:34;;;;;;;2.80;1.60;;;;;;;11.54;68.11;95096.91;2993256;39;20047;-74
2021/04/23 08:16:35;;;;;;;7.47;3.45;;;;;;;11.48;69.25;95105.41;2985324;39;20509;-74
2021/04/23 08:18:39;;;;;;;5.55;4.05;;;;;;;10.93;71.91;95113.53;2994252;39;20396;-75
2021/04/23 08:20:40;;;;;;;6.13;4.32;;;;;;;10.33;74.74;95109.69;2981371;39;20052;-73
2021/04/23 08:22:43;;;;;;;7.38;4.88;;;;;;;10.46;75.30;95111.94;2989235;39;20059;-72
2021/04/23 08:24:44;;;;;;;7.18;5.20;;;;;;;10.46;75.68;95106.72;2981793;39;20055;-74
2021/04/23 08:26:46;;;;;;;9.52;6.90;;;;;;;10.52;76.29;95107.91;2983966;39;20051;-73
2021/04/23 08:28:47;;;;;;;12.13;9.35;;;;;;;10.48;75.31;95107.38;2982915;39;20083;-74
2021/04/23 08:30:49;;;;;;;10.73;6.53;;;;;;;10.51;74.34;95108.88;2991676;39;20051;-73
2021/04/23 08:32:51;;;;;;;8.05;4.75;;;;;;;10.49;73.22;95108.22;2983567;39;20124;-74
2021/04/23 08:34:52;;;;;;;6.28;4.65;;;;;;;10.70;72.43;95102.69;2981253;39;20043;-72
2021/04/23 08:36:53;;;;;;;6.22;5.28;;;;;;;10.75;72.47;95105.66;2993307;39;20075;-75
2021/04/23 08:38:55;;;;;;;6.00;4.22;;;;;;;10.67;72.17;95098.56;2991959;39;20074;-73
2021/04/23 08:40:57;;;;;;;9.57;6.60;;;;;;;10.54;72.75;95104.19;2991828;39;20052;-74
2021/04/23 08:42:58;;;;;;;10.18;5.75;;;;;;;10.15;73.75;95112.25;2981187;39;20080;-74
2021/04/23 08:45:03;;;;;;;9.35;6.47;;;;;;;10.28;74.57;95104.03;2992321;39;20047;-73
2021/04/23 08:47:05;;;;;;;8.40;5.05;;;;;;;10.27;74.69;95109.44;2983230;39;20047;-74
2021/04/23 08:49:06;;;;;;;7.60;4.63;;;;;;;10.47;74.29;95104.91;2991499;39;20078;-74
2021/04/23 08:51:08;;;;;;;8.15;6.00;;;;;;;10.41;73.09;95108.94;2991079;39;20067;-74
2021/04/23 08:53:11;;;;;;;10.27;8.20;;;;;;;10.37;73.02;95118.09;2977881;39;20039;-71
2021/04/23 08:55:16;;;;;;;19.23;14.27;;;;;;;10.15;72.88;95109.63;2981700;39;20051;-73
2021/04/23 08:57:35;;;;;;;15.73;13.73;;;;;;;10.38;72.30;95109.25;2983482;39;20051;-73
2021/04/23 08:59:37;;;;;;;12.75;10.13;;;;;;;10.13;71.14;95103.72;2978670;39;20044;-72
2021/04/23 09:01:38;;;;;;;15.70;11.40;;;;;;;10.24;72.45;95102.69;2987669;39;20280;-73
2021/04/23 09:03:40;;;;;;;14.30;9.95;;;;;;;10.37;71.53;95107.59;2992819;39;20412;-73
2021/04/23 09:05:42;;;;;;;13.18;6.93;;;;;;;10.39;71.91;95100.41;2991886;39;20062;-72
2021/04/23 09:08:04;;;;;;;10.40;6.65;;;;;;;10.53;72.33;95101.69;2977771;39;20040;-73
2021/04/23 09:10:12;;;;;;;11.57;6.97;;;;;;;10.75;72.27;95101.25;2994090;39;20059;-74
2021/04/23 09:12:21;;;;;;;4.80;2.88;;;;;;;10.88;69.62;95106.09;2981129;39;20439;-72
2021/04/23 09:14:25;;;;;;;3.50;2.00;;;;;;;10.37;68.96;95107.59;2993810;39;20496;-72
2021/04/23 09:16:45;;;;;;;6.35;2.95;;;;;;;10.28;70.48;95113.69;2990804;39;20055;-86
2021/04/23 09:18:46;;;;;;;3.53;2.13;;;;;;;10.33;70.43;95112.31;2997754;39;20061;-88
2021/04/23 09:21:00;;;;;;;5.60;3.08;;;;;;;10.44;70.89;95113.88;2988515;39;20104;-87
2021/04/23 09:23:12;;;;;;;4.93;2.80;;;;;;;10.63;69.92;95113.75;2988785;39;20058;-87
2021/04/23 09:25:13;;;;;;;2.97;1.90;;;;;;;10.72;69.31;95116.47;2979703;40;20068;-86
2021/04/23 09:27:18;;;;;;;8.23;4.30;;;;;;;10.73;69.47;95111.06;2973084;39;20072;-85
2021/04/23 09:29:24;;;;;;;6.30;3.42;;;;;;;10.92;69.63;95112.69;3002620;39;20075;-84
2021/04/23 09:31:29;;;;;;;3.65;2.13;;;;;;;10.98;67.25;95104.22;3000286;39;20055;-88
2021/04/23 09:33:31;;;;;;;2.45;1.88;;;;;;;11.10;67.25;95112.69;2989348;39;20157;-88
2021/04/23 09:35:35;;;;;;;3.45;2.03;;;;;;;11.25;66.57;95103.31;2997469;39;20039;-88
2021/04/23 09:37:54;;;;;;;4.13;1.60;;;;;;;11.32;65.82;95100.06;2980411;39;20096;-85
2021/04/23 09:40:16;;;;;;;2.60;2.00;;;;;;;11.40;66.59;95098.31;2979836;39;20063;-87
2021/04/23 09:42:18;;;;;;;3.78;1.77;;;;;;;11.52;66.03;95108.56;2996638;39;20081;-89